Flugplatz Hölleberg

Für EDVL sind keine METAR/TAF Berichte vorhanden.
Es werden die Flugwettermeldungen vom Flugplatz Kassel-Calden in 22 km Entfernung angezeigt.

Bericht für EDVK

vom 07.12. um 18:20 UTC

Wind 8 kt aus 140°

Sichtweite 10 km oder mehr

aufgelockert bewölkt in 2300 ft

Temperatur 1.0°C

Taupunkt 0.0°C

Luftfeuchtigkeit 93%

Luftdruck 1006 hPa

EDVK 071820Z 14008KT 9999 SCT023 01/M00 Q1006

Prognose für EDVK

vom 07.12. um 17:00 UTC

Zwischen 18:00 UTC und 21:00 UTC

Wind 6 kt aus 150°

Sichtweite 10 km oder mehr

gering bewölkt in 2000 ft


Zwischen 21:00 und 00:00 UTC übergehend zu

Wind 12 kt aus 140°

Sichtweite 10 km oder mehr

gering bewölkt in 2000 ft


Am 08.12. zwischen 00:00 UTC und 03:00 UTC zeitweise

Wind 15 kt aus 160° in Böen 25 kt

TAF EDVK 071700Z 0718/0803 15006KT 9999 FEW020 BECMG 0721/0724 14012KT TEMPO 0800/0803 16015G25KT
Impressum